Time;durP1;ratioP1;P1;durP2;ratioP2;P2;SDS_P1;SDS_P2;PMS_P1;PMS_P2;Temp;Humidity;BMP_temperature;BMP_pressure;BME280_temperature;BME280_humidity;BME280_pressure;Samples;Min_cycle;Max_cycle;Signal;HPM_P1;HPM_P2
2021/10/02 00:33:26;;;;;;;1.00;0.50;;;11.20;99.90;;;;;;5063404;28;20880;-79
2021/10/02 00:35:01;;;;;;;1.10;0.80;;;11.20;99.90;;;;;;5063177;28;20442;-79
2021/10/02 00:37:44;;;;;;;1.10;0.60;;;11.20;99.90;;;;;;5063617;28;20420;-78
2021/10/02 00:45:45;;;;;;;1.57;1.13;;;11.20;99.90;;;;;;5044941;28;20416;-78
2021/10/02 00:48:14;;;;;;;0.90;0.60;;;11.20;99.90;;;;;;5062720;28;20503;-78
2021/10/02 00:50:45;;;;;;;1.33;0.77;;;11.10;99.90;;;;;;5063288;28;20431;-78
2021/10/02 00:53:15;;;;;;;1.47;1.37;;;11.10;99.90;;;;;;5063273;28;20390;-78
2021/10/02 00:55:43;;;;;;;1.57;1.20;;;11.20;99.90;;;;;;5059903;28;20463;-78
2021/10/02 00:58:12;;;;;;;0.97;0.63;;;11.20;99.90;;;;;;5060721;28;20431;-79
2021/10/02 01:00:45;;;;;;;1.17;0.63;;;11.20;99.90;;;;;;5045009;28;20440;-79
2021/10/02 01:03:20;;;;;;;1.13;1.03;;;11.20;99.90;;;;;;5063852;28;20906;-78
2021/10/02 01:05:58;;;;;;;1.00;0.60;;;11.10;99.90;;;;;;5058235;28;20394;-79
2021/10/02 01:08:36;;;;;;;1.00;0.60;;;11.20;99.90;;;;;;5052409;28;20420;-79
2021/10/02 01:11:22;;;;;;;0.93;0.63;;;11.20;99.90;;;;;;5052006;28;20474;-79
2021/10/02 01:13:59;;;;;;;0.90;0.60;;;11.30;99.90;;;;;;5051075;28;20447;-79
2021/10/02 01:16:32;;;;;;;1.10;1.00;;;11.30;99.90;;;;;;5045663;28;20375;-78
2021/10/02 01:19:25;;;;;;;1.87;1.00;;;11.20;99.90;;;;;;5029182;28;20407;-79
2021/10/02 01:22:09;;;;;;;0.90;0.63;;;11.20;99.90;;;;;;5050572;28;20403;-79
2021/10/02 01:24:52;;;;;;;0.90;0.50;;;11.20;99.90;;;;;;5049668;28;20440;-78
2021/10/02 01:27:49;;;;;;;1.00;0.50;;;11.20;99.90;;;;;;5047918;28;20409;-79
2021/10/02 01:30:23;;;;;;;2.20;2.00;;;11.20;99.90;;;;;;5032062;28;20528;-79
2021/10/02 01:33:05;;;;;;;1.07;0.60;;;11.30;99.90;;;;;;5049568;28;20412;-79
2021/10/02 01:35:40;;;;;;;1.00;0.60;;;11.30;99.90;;;;;;5049966;28;20472;-78
2021/10/02 01:49:24;;;;;;;2.23;0.73;;;11.20;99.90;;;;;;5048563;28;20426;-79
2021/10/02 01:51:54;;;;;;;0.90;0.67;;;11.30;99.90;;;;;;5047976;28;20408;-79
2021/10/02 01:54:23;;;;;;;0.90;0.60;;;11.20;99.90;;;;;;5050045;28;20475;-80
2021/10/02 01:56:52;;;;;;;1.27;0.97;;;11.10;99.90;;;;;;5048532;28;20558;-78
2021/10/02 01:59:27;;;;;;;1.00;0.83;;;11.10;99.90;;;;;;5049852;28;20458;-79
2021/10/02 02:01:58;;;;;;;1.77;1.60;;;11.10;99.90;;;;;;5033510;28;21065;-79
2021/10/02 02:04:30;;;;;;;0.93;0.70;;;11.10;99.90;;;;;;5054101;28;20655;-78
2021/10/02 02:06:59;;;;;;;1.03;0.73;;;11.10;99.90;;;;;;5051150;28;20387;-77
2021/10/02 02:09:37;;;;;;;1.10;0.83;;;11.10;99.90;;;;;;5051659;28;20394;-78
2021/10/02 02:12:08;;;;;;;1.43;1.03;;;11.10;99.90;;;;;;5049525;28;20428;-77
2021/10/02 02:14:40;;;;;;;1.27;1.03;;;11.10;99.90;;;;;;5045522;28;20430;-79
2021/10/02 02:17:09;;;;;;;1.00;0.60;;;11.10;99.90;;;;;;5049629;28;20443;-80
2021/10/02 02:19:39;;;;;;;0.90;0.60;;;11.10;99.90;;;;;;5049881;28;20454;-79
2021/10/02 02:22:07;;;;;;;0.90;0.60;;;11.10;99.90;;;;;;5049377;28;20395;-78
2021/10/02 02:24:35;;;;;;;1.73;0.70;;;11.10;99.90;;;;;;5048236;28;20483;-78
2021/10/02 02:27:05;;;;;;;1.37;0.90;;;11.00;99.90;;;;;;5047108;28;20428;-79
2021/10/02 02:29:35;;;;;;;1.10;0.70;;;11.10;99.90;;;;;;5045644;28;20918;-78
2021/10/02 02:32:05;;;;;;;0.90;0.60;;;11.10;99.90;;;;;;5046403;28;20424;-79
2021/10/02 02:34:34;;;;;;;1.23;1.07;;;11.20;99.90;;;;;;5029317;28;20461;-80
2021/10/02 02:37:02;;;;;;;1.93;0.77;;;11.20;99.90;;;;;;5048661;28;20947;-78
2021/10/02 02:39:30;;;;;;;1.00;0.80;;;11.40;99.90;;;;;;5048110;28;20431;-79
2021/10/02 02:41:58;;;;;;;1.20;1.10;;;11.40;99.90;;;;;;5050330;28;20462;-80
2021/10/02 02:44:26;;;;;;;1.00;0.70;;;11.40;99.90;;;;;;5032128;28;20438;-79
2021/10/02 02:47:01;;;;;;;1.77;1.30;;;11.40;99.90;;;;;;5049043;28;20395;-79
2021/10/02 02:49:39;;;;;;;1.47;1.23;;;11.50;99.90;;;;;;5047245;28;20387;-79
2021/10/02 02:52:12;;;;;;;1.17;1.07;;;11.50;99.90;;;;;;5047574;28;20926;-80
2021/10/02 02:54:45;;;;;;;1.40;1.23;;;11.40;99.90;;;;;;5048272;28;20475;-80
2021/10/02 02:57:17;;;;;;;1.63;1.03;;;11.40;99.90;;;;;;5048307;28;20471;-79
2021/10/02 02:59:51;;;;;;;1.47;1.20;;;11.50;99.90;;;;;;5049479;28;20387;-80
2021/10/02 03:02:21;;;;;;;1.77;0.77;;;11.40;99.90;;;;;;5048604;28;20391;-79
2021/10/02 03:04:54;;;;;;;1.20;0.60;;;11.50;99.90;;;;;;5047210;28;20444;-79
2021/10/02 03:07:25;;;;;;;0.90;0.57;;;11.40;99.90;;;;;;5030416;28;20459;-79
2021/10/02 03:09:56;;;;;;;0.87;0.57;;;11.30;99.90;;;;;;5045851;28;20412;-78
2021/10/02 03:12:32;;;;;;;1.03;0.60;;;11.30;99.90;;;;;;5045873;28;20418;-79
2021/10/02 03:15:02;;;;;;;0.90;0.70;;;11.20;99.90;;;;;;5044673;28;20549;-77
2021/10/02 03:17:31;;;;;;;0.90;0.60;;;11.20;99.90;;;;;;5046109;28;20453;-78
2021/10/02 03:20:02;;;;;;;1.10;0.80;;;11.30;99.90;;;;;;5047424;28;20424;-79
2021/10/02 03:22:36;;;;;;;1.10;1.00;;;11.30;99.90;;;;;;5047848;28;20398;-78
2021/10/02 03:25:05;;;;;;;0.80;0.50;;;11.20;99.90;;;;;;5049887;28;20476;-80
2021/10/02 03:27:35;;;;;;;2.50;1.17;;;11.20;99.90;;;;;;5050416;28;20405;-79
2021/10/02 03:30:03;;;;;;;1.07;0.97;;;11.20;99.90;;;;;;5047384;28;20444;-78
2021/10/02 03:32:31;;;;;;;0.90;0.63;;;11.40;99.90;;;;;;5049119;28;20429;-78
2021/10/02 03:35:01;;;;;;;1.90;1.20;;;11.30;99.90;;;;;;5054535;28;20428;-76
2021/10/02 03:37:30;;;;;;;1.60;0.83;;;11.40;99.90;;;;;;5037883;28;20498;-77
2021/10/02 03:40:21;;;;;;;1.10;0.80;;;11.40;99.90;;;;;;5037453;28;20508;-79
2021/10/02 03:42:57;;;;;;;1.00;0.77;;;11.50;99.90;;;;;;5036941;28;20737;-77
2021/10/02 03:45:29;;;;;;;0.90;0.73;;;11.50;99.90;;;;;;5055168;28;20462;-77
2021/10/02 03:47:58;;;;;;;2.10;1.07;;;11.50;99.90;;;;;;5055900;28;20904;-78
2021/10/02 03:50:28;;;;;;;1.13;0.70;;;11.40;99.90;;;;;;5054750;28;20420;-80
2021/10/02 03:52:56;;;;;;;0.90;0.60;;;11.40;99.90;;;;;;5051402;28;20444;-78
2021/10/02 03:55:24;;;;;;;1.00;0.70;;;11.50;99.90;;;;;;5055243;28;20455;-78
2021/10/02 03:57:53;;;;;;;1.27;0.80;;;11.50;99.90;;;;;;5053971;28;20408;-78
2021/10/02 04:00:23;;;;;;;1.83;0.90;;;11.50;99.90;;;;;;5055256;28;20427;-78
2021/10/02 04:02:51;;;;;;;1.20;0.90;;;11.50;99.90;;;;;;5050127;28;20367;-79
2021/10/02 04:05:19;;;;;;;1.30;1.00;;;11.50;99.90;;;;;;5027415;28;20422;-79
2021/10/02 04:07:49;;;;;;;1.03;0.77;;;11.50;99.90;;;;;;5046532;28;20499;-80
2021/10/02 04:10:17;;;;;;;1.07;0.83;;;11.50;99.90;;;;;;5045641;28;20428;-79
2021/10/02 04:12:46;;;;;;;1.13;0.70;;;11.50;99.90;;;;;;5047022;28;20432;-80
2021/10/02 04:15:14;;;;;;;1.47;0.97;;;11.60;99.90;;;;;;5045696;28;20443;-79
2021/10/02 04:17:42;;;;;;;0.93;0.67;;;11.60;99.90;;;;;;5029032;28;20482;-78
2021/10/02 04:20:11;;;;;;;0.90;0.50;;;11.50;99.90;;;;;;5045723;28;20471;-79
2021/10/02 04:22:39;;;;;;;1.00;0.83;;;11.50;99.90;;;;;;5046868;28;20411;-79
2021/10/02 04:25:09;;;;;;;0.90;0.60;;;11.60;99.90;;;;;;5028088;28;20438;-79
2021/10/02 04:27:38;;;;;;;1.10;0.70;;;11.60;99.90;;;;;;5028382;28;20432;-79
2021/10/02 04:30:06;;;;;;;1.10;0.70;;;11.60;99.90;;;;;;5028982;28;20428;-78
2021/10/02 04:32:35;;;;;;;0.90;0.60;;;11.70;99.90;;;;;;5046218;28;20387;-79
2021/10/02 04:35:04;;;;;;;0.93;0.63;;;11.70;99.90;;;;;;5046546;28;20419;-78
2021/10/02 04:37:32;;;;;;;1.60;1.50;;;11.80;99.90;;;;;;5047484;28;20452;-79
2021/10/02 04:40:00;;;;;;;1.10;0.80;;;11.80;99.90;;;;;;5045534;28;20909;-79
2021/10/02 04:42:30;;;;;;;1.23;1.07;;;11.80;99.90;;;;;;5049664;28;20508;-79
2021/10/02 04:44:58;;;;;;;0.90;0.70;;;11.80;99.90;;;;;;5049150;28;20474;-80
2021/10/02 04:47:27;;;;;;;1.00;0.90;;;11.80;99.90;;;;;;5051358;28;20493;-78
2021/10/02 04:49:55;;;;;;;2.20;1.53;;;11.80;99.90;;;;;;5032099;28;20939;-79
2021/10/02 04:52:23;;;;;;;0.93;0.67;;;11.70;99.90;;;;;;5050714;28;20482;-78
2021/10/02 04:54:51;;;;;;;1.90;0.73;;;11.70;99.90;;;;;;5049159;28;20418;-78
2021/10/02 04:57:20;;;;;;;1.47;0.90;;;11.70;99.90;;;;;;5049439;28;20470;-79
2021/10/02 04:59:49;;;;;;;1.47;1.10;;;11.80;99.90;;;;;;5049842;28;20486;-79
2021/10/02 05:02:17;;;;;;;0.87;0.60;;;11.80;99.90;;;;;;5051279;28;20434;-78
2021/10/02 05:04:46;;;;;;;0.90;0.60;;;11.80;99.90;;;;;;5051043;28;20494;-79
2021/10/02 05:07:14;;;;;;;0.80;0.50;;;11.70;99.90;;;;;;5049773;28;20428;-78
2021/10/02 05:09:42;;;;;;;2.83;1.77;;;11.70;99.90;;;;;;5044986;28;20426;-79
2021/10/02 05:12:11;;;;;;;1.60;1.07;;;11.70;99.90;;;;;;5044120;28;20943;-79
2021/10/02 05:14:40;;;;;;;0.90;0.60;;;11.70;99.90;;;;;;5042266;28;20852;-79
2021/10/02 05:17:11;;;;;;;1.40;0.73;;;11.70;99.90;;;;;;5043167;28;20482;-78
2021/10/02 05:19:40;;;;;;;1.07;0.93;;;11.70;99.90;;;;;;5023730;28;20428;-79
2021/10/02 05:22:08;;;;;;;1.40;0.70;;;11.70;99.90;;;;;;5042925;28;20435;-79
2021/10/02 05:24:37;;;;;;;1.30;0.80;;;11.70;99.90;;;;;;5039023;28;20547;-79
2021/10/02 05:27:08;;;;;;;1.23;0.70;;;11.70;99.90;;;;;;5046922;28;20469;-78
2021/10/02 05:29:38;;;;;;;1.00;0.70;;;11.70;99.90;;;;;;5031858;28;20391;-78
2021/10/02 05:32:09;;;;;;;1.20;1.10;;;11.80;99.90;;;;;;5051808;28;20428;-79
2021/10/02 05:34:38;;;;;;;0.90;0.70;;;11.70;99.90;;;;;;5035184;28;20456;-79
2021/10/02 05:37:06;;;;;;;1.43;1.17;;;11.80;99.90;;;;;;5054938;28;20470;-78
2021/10/02 05:39:34;;;;;;;1.00;0.63;;;11.80;99.90;;;;;;5057799;28;20427;-78
2021/10/02 05:42:03;;;;;;;1.53;1.20;;;11.80;99.90;;;;;;5053966;28;20433;-79
2021/10/02 05:44:33;;;;;;;0.97;0.70;;;11.90;99.90;;;;;;5049568;28;20494;-79
2021/10/02 05:47:01;;;;;;;1.00;0.60;;;11.90;99.90;;;;;;5031939;28;20491;-78
2021/10/02 05:49:30;;;;;;;1.30;1.20;;;12.00;99.90;;;;;;5049803;28;20420;-79
2021/10/02 05:51:59;;;;;;;0.80;0.50;;;12.10;99.90;;;;;;5048304;28;20421;-77
2021/10/02 05:54:27;;;;;;;1.60;1.37;;;12.00;99.90;;;;;;5047455;28;20447;-78
2021/10/02 05:56:55;;;;;;;1.20;0.90;;;12.10;99.90;;;;;;5055580;28;20439;-78
2021/10/02 05:59:24;;;;;;;1.00;0.63;;;12.10;99.90;;;;;;5028248;28;20511;-77
2021/10/02 06:01:52;;;;;;;0.90;0.60;;;12.10;99.90;;;;;;5047730;28;20428;-79
2021/10/02 06:04:20;;;;;;;1.00;0.63;;;12.20;99.90;;;;;;5047174;28;20447;-78
2021/10/02 06:06:50;;;;;;;1.53;1.43;;;12.20;99.90;;;;;;5048008;28;20424;-79
2021/10/02 06:09:18;;;;;;;1.63;1.10;;;12.20;99.90;;;;;;5047193;28;20451;-79
2021/10/02 06:11:46;;;;;;;2.70;0.77;;;12.30;99.90;;;;;;5047902;28;20795;-78
2021/10/02 06:14:15;;;;;;;1.50;0.80;;;12.40;99.90;;;;;;5048927;28;20425;-79
2021/10/02 06:16:43;;;;;;;2.03;1.57;;;12.50;99.90;;;;;;5048761;28;20439;-79
2021/10/02 06:19:12;;;;;;;1.90;1.80;;;12.50;99.90;;;;;;5048297;28;20478;-79
2021/10/02 06:21:40;;;;;;;0.93;0.60;;;12.70;99.90;;;;;;5030167;28;20440;-79
2021/10/02 06:24:09;;;;;;;1.87;1.47;;;12.70;99.90;;;;;;5056814;22;20495;-79
2021/10/02 06:26:38;;;;;;;4.17;1.03;;;12.70;99.90;;;;;;5039467;28;20406;-79
2021/10/02 06:29:08;;;;;;;2.17;0.80;;;12.80;99.90;;;;;;5040563;28;20432;-81
2021/10/02 06:31:37;;;;;;;1.10;0.70;;;12.80;99.90;;;;;;5038262;28;20410;-78
2021/10/02 06:34:05;;;;;;;1.17;1.00;;;12.80;99.90;;;;;;5038350;28;20452;-78
2021/10/02 06:36:33;;;;;;;2.37;1.27;;;12.70;99.90;;;;;;5040297;28;20436;-78
2021/10/02 06:39:02;;;;;;;1.03;0.63;;;12.80;99.90;;;;;;5041695;28;20472;-79
2021/10/02 06:41:31;;;;;;;0.90;0.50;;;12.70;99.90;;;;;;5045647;28;20433;-78
2021/10/02 06:43:59;;;;;;;1.40;1.20;;;12.80;99.90;;;;;;5053908;28;20440;-79
2021/10/02 06:46:30;;;;;;;1.10;0.90;;;12.80;99.90;;;;;;5051830;28;20395;-78
2021/10/02 06:48:58;;;;;;;1.00;0.90;;;12.70;99.90;;;;;;5037685;28;20395;-79
2021/10/02 06:51:26;;;;;;;0.90;0.60;;;12.80;99.90;;;;;;5036924;28;20406;-77
2021/10/02 06:53:54;;;;;;;1.53;1.43;;;12.80;99.90;;;;;;5038446;28;20468;-77
2021/10/02 06:56:23;;;;;;;1.70;1.50;;;13.00;99.90;;;;;;5054912;28;20416;-76
2021/10/02 06:58:52;;;;;;;1.50;0.70;;;13.00;99.90;;;;;;5053735;28;20423;-77
2021/10/02 07:01:20;;;;;;;1.10;0.80;;;13.00;99.90;;;;;;5045488;28;20432;-78
2021/10/02 07:03:48;;;;;;;0.90;0.60;;;13.20;99.90;;;;;;5040356;28;20479;-78
2021/10/02 07:06:16;;;;;;;2.43;1.20;;;13.20;99.90;;;;;;5041521;28;20452;-77
2021/10/02 07:08:45;;;;;;;1.67;0.90;;;13.20;99.90;;;;;;5045421;28;20417;-78
2021/10/02 07:11:13;;;;;;;1.00;0.87;;;13.40;99.90;;;;;;5048207;28;20918;-78
2021/10/02 07:13:41;;;;;;;1.23;1.13;;;13.60;99.90;;;;;;5029628;28;20414;-78
2021/10/02 07:16:11;;;;;;;1.10;0.77;;;13.70;99.90;;;;;;5027236;28;20432;-77
2021/10/02 07:18:39;;;;;;;1.40;1.20;;;13.70;99.90;;;;;;5048610;28;20490;-78
2021/10/02 07:21:08;;;;;;;3.00;1.30;;;13.90;99.90;;;;;;5040651;28;20413;-79
2021/10/02 07:23:37;;;;;;;2.13;0.87;;;14.20;99.90;;;;;;5037668;28;20432;-78
2021/10/02 07:26:06;;;;;;;1.47;0.97;;;14.30;99.90;;;;;;5037350;28;20387;-79
2021/10/02 07:28:34;;;;;;;2.90;1.77;;;14.40;99.90;;;;;;5020878;28;20436;-79
2021/10/02 07:31:02;;;;;;;1.63;1.20;;;14.60;99.90;;;;;;5041473;28;20446;-78
2021/10/02 07:33:32;;;;;;;2.00;1.70;;;14.70;99.90;;;;;;5053478;28;20435;-78
2021/10/02 07:36:00;;;;;;;1.23;0.67;;;14.80;99.90;;;;;;5050218;28;20395;-77
2021/10/02 07:38:28;;;;;;;1.73;1.47;;;14.90;99.90;;;;;;5046099;28;20545;-79
2021/10/02 07:40:58;;;;;;;1.47;1.37;;;14.90;99.90;;;;;;5037353;28;20407;-78
2021/10/02 07:43:27;;;;;;;1.83;1.47;;;15.00;99.90;;;;;;5037660;28;20432;-78
2021/10/02 07:45:56;;;;;;;2.33;1.70;;;14.90;99.90;;;;;;5036965;28;20453;-78
2021/10/02 07:48:25;;;;;;;2.20;1.43;;;14.90;99.90;;;;;;5037748;28;20416;-79
2021/10/02 07:50:58;;;;;;;1.07;0.83;;;14.90;99.90;;;;;;5038619;28;20413;-79
2021/10/02 07:53:30;;;;;;;2.73;1.30;;;14.90;99.90;;;;;;5037482;28;20759;-78
2021/10/02 07:56:00;;;;;;;5.83;1.20;;;14.90;99.90;;;;;;5037990;28;20404;-78
2021/10/02 07:58:28;;;;;;;2.20;1.00;;;15.10;99.90;;;;;;5038367;28;20460;-79
2021/10/02 08:00:57;;;;;;;1.97;1.33;;;15.10;99.90;;;;;;5038932;28;20448;-77
2021/10/02 08:03:26;;;;;;;2.60;1.37;;;15.20;99.90;;;;;;5038930;28;20429;-79
2021/10/02 08:05:56;;;;;;;7.33;2.30;;;15.30;99.90;;;;;;5038487;28;20524;-77
2021/10/02 08:08:24;;;;;;;1.30;1.00;;;15.30;99.90;;;;;;5038892;28;20855;-77
2021/10/02 08:10:52;;;;;;;1.00;0.80;;;15.20;99.90;;;;;;5038193;28;20383;-78
2021/10/02 08:13:20;;;;;;;1.10;0.90;;;15.20;99.90;;;;;;5048207;28;20881;-76
2021/10/02 08:15:56;;;;;;;1.17;0.80;;;15.40;99.90;;;;;;5050804;28;20515;-77
2021/10/02 08:18:27;;;;;;;1.67;1.27;;;15.50;99.90;;;;;;5054044;28;20782;-77
2021/10/02 08:20:59;;;;;;;1.90;1.40;;;15.50;99.90;;;;;;5054111;28;20491;-77
2021/10/02 08:23:27;;;;;;;1.43;1.10;;;15.70;99.90;;;;;;5029456;28;20417;-77
2021/10/02 08:25:55;;;;;;;2.33;1.27;;;15.70;99.90;;;;;;5044971;28;20424;-76
2021/10/02 08:28:25;;;;;;;1.10;0.70;;;15.70;99.90;;;;;;5043849;28;20460;-77
2021/10/02 08:30:54;;;;;;;1.90;1.37;;;15.70;99.90;;;;;;5046641;28;20424;-77
2021/10/02 08:33:23;;;;;;;1.00;0.80;;;15.40;99.90;;;;;;5052223;28;20407;-78
2021/10/02 08:35:51;;;;;;;2.17;1.47;;;15.40;99.90;;;;;;5052770;28;20425;-79
2021/10/02 08:38:20;;;;;;;1.47;0.80;;;15.60;99.90;;;;;;5054394;28;20444;-77
2021/10/02 08:40:49;;;;;;;1.20;0.83;;;15.40;99.90;;;;;;5038577;28;20424;-78
2021/10/02 08:43:18;;;;;;;2.13;1.43;;;15.50;99.90;;;;;;5052726;28;20403;-77
2021/10/02 08:45:47;;;;;;;1.00;0.80;;;15.40;99.90;;;;;;5050113;28;20429;-79
2021/10/02 08:48:17;;;;;;;1.13;0.70;;;15.40;99.90;;;;;;5046693;28;20435;-77
2021/10/02 08:50:46;;;;;;;1.30;1.13;;;15.40;99.90;;;;;;5047931;28;20416;-78
2021/10/02 08:53:15;;;;;;;1.60;1.20;;;15.40;99.90;;;;;;5024212;28;20459;-79
2021/10/02 08:55:45;;;;;;;1.00;0.73;;;15.30;99.90;;;;;;5040557;28;20535;-79
2021/10/02 08:58:14;;;;;;;2.80;0.90;;;15.40;99.90;;;;;;5042124;28;20760;-79
2021/10/02 09:00:42;;;;;;;1.10;0.77;;;15.40;99.90;;;;;;5041589;28;20409;-81
2021/10/02 09:03:11;;;;;;;1.30;1.07;;;15.50;99.90;;;;;;5039724;28;20435;-80
2021/10/02 09:05:39;;;;;;;1.83;1.53;;;15.60;99.90;;;;;;5022273;28;20456;-79
2021/10/02 09:08:08;;;;;;;1.00;0.63;;;15.60;99.90;;;;;;5041260;28;20426;-79
2021/10/02 09:10:38;;;;;;;1.00;0.70;;;15.70;99.90;;;;;;5041323;28;20494;-78
2021/10/02 09:13:08;;;;;;;2.17;1.50;;;15.90;99.90;;;;;;5022317;28;20439;-79
2021/10/02 09:15:36;;;;;;;1.20;0.93;;;16.10;99.90;;;;;;5048076;28;20516;-79
2021/10/02 09:18:05;;;;;;;1.10;0.80;;;16.10;99.90;;;;;;5053367;28;20394;-80
2021/10/02 09:20:33;;;;;;;1.27;1.17;;;16.20;99.90;;;;;;5051543;28;20461;-79
2021/10/02 09:23:03;;;;;;;1.10;0.87;;;16.30;99.90;;;;;;5046979;28;20406;-79
2021/10/02 09:25:34;;;;;;;1.00;0.70;;;16.40;99.90;;;;;;5043409;28;20478;-80
2021/10/02 09:28:05;;;;;;;2.27;1.83;;;16.70;99.90;;;;;;5041450;28;20391;-79
2021/10/02 09:30:35;;;;;;;1.30;1.13;;;16.70;99.90;;;;;;5040430;28;20458;-78
2021/10/02 09:33:05;;;;;;;2.23;1.37;;;16.70;99.90;;;;;;5040997;28;20419;-80
2021/10/02 09:35:40;;;;;;;1.03;0.73;;;16.70;99.90;;;;;;5041932;28;20838;-80
2021/10/02 09:38:11;;;;;;;1.00;0.70;;;16.90;99.90;;;;;;5040518;28;20405;-80
2021/10/02 09:40:40;;;;;;;1.33;0.97;;;17.00;99.90;;;;;;5042886;28;20459;-79
2021/10/02 09:43:08;;;;;;;2.03;1.20;;;17.10;99.90;;;;;;5043794;28;20402;-79
2021/10/02 09:45:40;;;;;;;1.30;0.60;;;17.30;99.90;;;;;;5025946;28;20435;-79
2021/10/02 09:48:10;;;;;;;1.10;0.80;;;17.40;99.90;;;;;;5026772;28;20438;-79
2021/10/02 09:50:40;;;;;;;1.10;0.60;;;17.70;99.90;;;;;;5045319;28;20399;-78
2021/10/02 09:53:10;;;;;;;0.90;0.60;;;17.90;99.90;;;;;;5028161;28;20411;-81
2021/10/02 09:55:40;;;;;;;1.43;0.70;;;18.00;99.90;;;;;;5027253;28;20437;-80
2021/10/02 09:58:10;;;;;;;1.50;1.40;;;18.00;99.90;;;;;;5045382;28;20403;-79
2021/10/02 10:00:42;;;;;;;1.00;0.80;;;17.90;99.90;;;;;;5049592;28;20911;-79
2021/10/02 10:03:12;;;;;;;1.33;1.10;;;17.70;99.90;;;;;;5043765;28;20408;-78
2021/10/02 10:05:43;;;;;;;2.60;1.53;;;17.80;99.90;;;;;;5017612;28;20468;-78
2021/10/02 10:08:12;;;;;;;1.23;0.70;;;17.90;99.90;;;;;;5034640;28;20475;-78
2021/10/02 10:10:42;;;;;;;1.00;0.60;;;18.00;99.90;;;;;;5035198;28;20455;-78
2021/10/02 10:13:13;;;;;;;1.00;0.60;;;18.10;99.90;;;;;;5035489;28;20390;-78
2021/10/02 10:15:44;;;;;;;1.07;0.97;;;18.00;99.90;;;;;;5034838;28;20457;-79
2021/10/02 10:18:15;;;;;;;1.47;0.77;;;18.10;99.90;;;;;;5018559;28;20414;-78
2021/10/02 10:20:50;;;;;;;1.57;0.60;;;18.10;99.90;;;;;;5035805;28;20437;-78
2021/10/02 10:23:28;;;;;;;1.00;0.80;;;18.20;99.90;;;;;;5037047;28;20402;-79
2021/10/02 10:25:58;;;;;;;1.03;0.67;;;18.20;99.90;;;;;;5036479;28;20408;-78
2021/10/02 10:28:29;;;;;;;0.90;0.60;;;18.40;99.90;;;;;;5038013;28;20424;-81
2021/10/02 10:31:13;;;;;;;1.00;0.60;;;18.50;99.90;;;;;;5039303;28;20386;-79
2021/10/02 10:33:42;;;;;;;1.40;0.73;;;18.70;99.90;;;;;;5038463;28;21015;-79
2021/10/02 10:36:12;;;;;;;1.33;0.63;;;18.70;99.40;;;;;;5040048;28;20416;-79
2021/10/02 10:38:43;;;;;;;1.50;0.83;;;18.70;98.30;;;;;;5035331;28;20881;-78
2021/10/02 10:41:14;;;;;;;1.23;1.13;;;18.90;97.50;;;;;;5035996;28;20452;-79
2021/10/02 10:43:44;;;;;;;1.00;0.50;;;19.00;96.30;;;;;;5035559;28;20407;-79
2021/10/02 10:46:16;;;;;;;0.93;0.60;;;19.10;95.00;;;;;;5038365;28;20493;-79
2021/10/02 10:48:44;;;;;;;1.67;0.70;;;19.10;93.30;;;;;;5043324;28;20761;-78
2021/10/02 10:51:15;;;;;;;1.00;0.60;;;19.10;92.00;;;;;;5027766;28;20430;-78
2021/10/02 10:53:45;;;;;;;1.00;0.70;;;19.20;91.70;;;;;;5049903;28;20836;-78
2021/10/02 10:56:16;;;;;;;1.73;0.63;;;19.30;91.50;;;;;;5045110;28;20430;-78
2021/10/02 10:58:58;;;;;;;1.00;0.50;;;19.40;91.00;;;;;;5046632;28;20424;-78
2021/10/02 11:01:38;;;;;;;1.20;0.93;;;19.50;88.50;;;;;;5051720;28;20434;-79
2021/10/02 11:04:08;;;;;;;0.90;0.50;;;19.50;86.00;;;;;;5056617;28;20451;-78
2021/10/02 11:06:50;;;;;;;0.90;0.50;;;19.60;86.40;;;;;;5056237;28;20435;-78
2021/10/02 11:09:37;;;;;;;1.20;0.90;;;19.50;85.00;;;;;;5039212;28;20439;-79
2021/10/02 11:12:09;;;;;;;1.00;0.50;;;19.40;82.40;;;;;;5056473;28;20388;-77
2021/10/02 11:15:03;;;;;;;1.10;0.70;;;19.50;83.20;;;;;;5055090;28;20427;-79
2021/10/02 11:17:45;;;;;;;1.53;0.90;;;19.40;83.50;;;;;;5055515;28;20394;-78
2021/10/02 11:20:37;;;;;;;1.17;0.70;;;19.50;83.80;;;;;;5040035;28;20514;-79
2021/10/02 11:23:43;;;;;;;0.90;0.50;;;19.80;85.80;;;;;;5036101;28;20389;-79
2021/10/02 11:26:18;;;;;;;1.50;1.07;;;20.00;84.90;;;;;;5035168;28;20485;-79
2021/10/02 11:28:49;;;;;;;2.40;1.50;;;20.00;82.90;;;;;;5034616;28;20417;-79
2021/10/02 11:31:19;;;;;;;1.30;0.90;;;20.10;82.50;;;;;;5034964;28;20905;-78
2021/10/02 11:33:50;;;;;;;1.10;0.70;;;20.20;81.20;;;;;;5033615;28;20554;-78
2021/10/02 11:36:47;;;;;;;1.17;0.93;;;20.20;80.10;;;;;;5035156;28;20398;-80
2021/10/02 11:39:21;;;;;;;1.20;0.70;;;20.10;81.00;;;;;;5034104;28;20420;-79
2021/10/02 11:41:54;;;;;;;1.53;1.30;;;20.10;82.00;;;;;;5033811;28;20416;-79
2021/10/02 11:44:40;;;;;;;1.10;0.60;;;20.20;82.00;;;;;;5034016;28;20439;-80
2021/10/02 11:47:32;;;;;;;1.70;0.80;;;20.00;81.80;;;;;;5035952;28;20432;-80
2021/10/02 11:50:28;;;;;;;1.97;1.57;;;19.90;81.40;;;;;;5035017;28;20412;-81
2021/10/02 11:53:16;;;;;;;1.10;0.90;;;19.90;82.70;;;;;;5033118;28;20411;-79
2021/10/02 11:55:48;;;;;;;1.43;0.90;;;19.90;84.40;;;;;;5034431;28;20452;-80
2021/10/02 11:58:20;;;;;;;1.80;1.00;;;20.20;84.80;;;;;;5036367;28;20415;-80
2021/10/02 12:00:58;;;;;;;1.20;0.80;;;20.30;83.10;;;;;;5038234;28;20952;-79
2021/10/02 12:03:30;;;;;;;1.00;0.77;;;20.50;81.60;;;;;;5020760;28;20410;-80
2021/10/02 12:06:01;;;;;;;2.70;1.00;;;20.40;80.70;;;;;;5035606;28;20853;-79
2021/10/02 12:08:31;;;;;;;2.10;1.47;;;20.60;78.10;;;;;;5018668;28;20544;-79
2021/10/02 12:11:01;;;;;;;1.00;0.60;;;20.60;76.10;;;;;;5034495;28;20492;-77
2021/10/02 12:13:34;;;;;;;1.53;0.90;;;20.60;74.90;;;;;;5035807;28;20383;-80
2021/10/02 12:16:06;;;;;;;0.90;0.50;;;20.70;73.60;;;;;;5034265;28;20519;-78
2021/10/02 12:18:47;;;;;;;1.47;1.10;;;20.60;70.70;;;;;;5034956;28;20949;-79
2021/10/02 12:21:30;;;;;;;1.10;0.60;;;20.40;67.70;;;;;;5016511;28;20464;-78
2021/10/02 12:24:21;;;;;;;0.97;0.57;;;20.50;83.20;;;;;;5027546;22;20463;-87
2021/10/02 12:26:55;;;;;;;1.53;0.80;;;20.50;67.30;;;;;;5009581;28;20517;-77
2021/10/02 12:29:30;;;;;;;1.17;0.60;;;20.40;68.30;;;;;;5012124;28;20482;-76
2021/10/02 12:32:07;;;;;;;1.00;0.50;;;20.30;68.80;;;;;;5011772;28;20425;-76
2021/10/02 12:34:39;;;;;;;1.00;0.57;;;20.20;69.80;;;;;;5011674;28;20444;-77
2021/10/02 12:37:15;;;;;;;1.10;0.70;;;20.30;71.60;;;;;;5011616;28;20811;-77
2021/10/02 12:39:52;;;;;;;1.60;0.70;;;20.30;68.60;;;;;;5011636;28;20409;-78
2021/10/02 12:42:32;;;;;;;1.30;0.80;;;20.30;69.00;;;;;;5011747;28;20401;-77
2021/10/02 12:45:00;;;;;;;0.90;0.50;;;20.30;66.10;;;;;;5011359;28;20492;-75
2021/10/02 12:47:32;;;;;;;1.00;0.57;;;20.40;65.80;;;;;;5009846;28;20417;-76
2021/10/02 12:50:02;;;;;;;1.17;0.83;;;20.50;64.80;;;;;;4993211;28;20483;-76
2021/10/02 12:52:32;;;;;;;1.10;0.73;;;20.50;62.20;;;;;;5011885;28;20402;-77
2021/10/02 12:55:00;;;;;;;0.90;0.50;;;20.50;61.80;;;;;;5011301;28;20453;-77
2021/10/02 12:57:32;;;;;;;1.20;0.70;;;20.60;62.50;;;;;;5011339;28;20471;-77
2021/10/02 13:00:02;;;;;;;1.20;0.63;;;20.60;60.80;;;;;;5011962;28;20425;-76
2021/10/02 13:02:31;;;;;;;1.10;0.60;;;20.60;59.70;;;;;;5013195;28;20456;-76
2021/10/02 13:05:00;;;;;;;1.00;0.50;;;20.60;58.70;;;;;;5014633;28;20797;-77
2021/10/02 13:07:33;;;;;;;9.67;1.40;;;20.70;58.80;;;;;;4997371;28;20459;-76
2021/10/02 13:10:10;;;;;;;1.13;0.70;;;20.90;58.40;;;;;;4998025;28;20421;-75
2021/10/02 13:12:41;;;;;;;1.30;0.83;;;21.10;58.90;;;;;;5015521;28;20463;-77
2021/10/02 13:15:23;;;;;;;1.00;0.60;;;21.10;57.40;;;;;;5017084;28;20452;-76
2021/10/02 13:18:03;;;;;;;1.70;0.87;;;21.10;55.40;;;;;;5018191;28;20437;-75
2021/10/02 13:20:34;;;;;;;1.40;0.80;;;21.10;54.90;;;;;;5016811;28;20384;-75
2021/10/02 13:23:08;;;;;;;1.80;0.90;;;21.20;54.50;;;;;;5018124;28;20490;-76
2021/10/02 13:25:42;;;;;;;1.20;0.83;;;21.10;53.50;;;;;;5018134;28;20539;-76
2021/10/02 13:28:23;;;;;;;0.90;0.50;;;21.10;53.80;;;;;;4999663;28;20495;-76
2021/10/02 13:30:52;;;;;;;1.00;0.57;;;21.30;53.70;;;;;;4998857;28;20425;-76
2021/10/02 13:33:20;;;;;;;1.30;0.70;;;21.30;53.10;;;;;;5014676;28;20444;-76
2021/10/02 13:35:51;;;;;;;1.70;0.93;;;21.30;53.30;;;;;;5014802;28;20524;-76
2021/10/02 13:38:33;;;;;;;1.33;0.80;;;21.30;52.80;;;;;;5016577;28;20414;-76
2021/10/02 13:41:05;;;;;;;1.43;1.10;;;21.50;53.30;;;;;;5017161;28;20449;-74
2021/10/02 13:43:33;;;;;;;1.10;0.67;;;21.60;53.00;;;;;;5016166;28;20421;-76
2021/10/02 13:46:01;;;;;;;1.20;0.70;;;21.60;52.90;;;;;;4997640;28;20613;-77
2021/10/02 13:48:31;;;;;;;2.10;0.87;;;21.50;52.50;;;;;;5015039;28;20396;-76
2021/10/02 13:51:00;;;;;;;1.20;0.73;;;21.50;53.00;;;;;;4997263;28;20491;-76
2021/10/02 13:53:29;;;;;;;1.10;0.80;;;21.20;52.40;;;;;;4997079;28;20524;-76
2021/10/02 13:55:57;;;;;;;1.00;0.60;;;21.20;52.70;;;;;;5013726;28;20495;-77
2021/10/02 13:58:26;;;;;;;1.50;0.70;;;21.10;52.70;;;;;;5014260;28;20466;-76